createdAt,value
2023-01-18T00:02:03.236Z,27.65
2023-01-18T00:04:35.559Z,28.30
2023-01-18T00:07:09.226Z,26.38
2023-01-18T00:09:42.745Z,30.25
2023-01-18T00:12:14.353Z,29.42
2023-01-18T00:14:46.793Z,28.10
2023-01-18T00:17:22.374Z,31.15
2023-01-18T00:20:11.881Z,26.02
2023-01-18T00:22:44.013Z,23.52
2023-01-18T00:25:42.974Z,31.13
2023-01-18T00:28:27.212Z,26.77
2023-01-18T00:30:59.228Z,30.05
2023-01-18T00:33:34.459Z,29.02
2023-01-18T00:36:07.939Z,29.15
2023-01-18T00:38:40.337Z,29.77
2023-01-18T00:41:12.622Z,25.38
2023-01-18T00:43:42.320Z,30.38
2023-01-18T00:46:16.008Z,29.00
2023-01-18T00:48:51.426Z,26.55
2023-01-18T00:51:45.518Z,27.42
2023-01-18T00:54:18.111Z,29.40
2023-01-18T00:56:50.130Z,26.60
2023-01-18T00:59:22.583Z,30.05
2023-01-18T01:01:55.210Z,30.25
2023-01-18T01:04:42.791Z,23.52
2023-01-18T01:07:15.169Z,29.75
2023-01-18T01:09:47.731Z,30.65
2023-01-18T01:12:31.780Z,27.17
2023-01-18T01:15:16.480Z,30.73
2023-01-18T01:18:00.799Z,24.02
2023-01-18T01:20:48.061Z,26.17
2023-01-18T01:23:35.217Z,25.05
2023-01-18T01:26:11.168Z,25.20
2023-01-18T01:28:45.041Z,25.70
2023-01-18T01:31:20.502Z,29.27
2023-01-18T01:33:52.499Z,30.60
2023-01-18T01:36:29.099Z,31.88
2023-01-18T01:39:00.871Z,26.70
2023-01-18T01:41:36.452Z,30.70
2023-01-18T01:44:37.917Z,25.13
2023-01-18T01:47:16.863Z,23.23
2023-01-18T01:49:52.760Z,24.45
2023-01-18T01:52:34.006Z,27.17
2023-01-18T01:55:10.462Z,26.65
2023-01-18T01:57:47.824Z,30.15
2023-01-18T02:00:24.574Z,26.17
2023-01-18T02:03:00.738Z,26.13
2023-01-18T02:05:37.684Z,27.85
2023-01-18T02:08:25.496Z,32.35
2023-01-18T02:11:00.932Z,32.78
2023-01-18T02:13:36.723Z,30.85
2023-01-18T02:16:17.053Z,22.67
2023-01-18T02:19:01.046Z,30.58
2023-01-18T02:21:37.435Z,27.73
2023-01-18T02:24:42.355Z,30.55
2023-01-18T02:27:24.491Z,28.80
2023-01-18T02:30:19.275Z,33.90
2023-01-18T02:33:02.587Z,25.98
2023-01-18T02:35:48.995Z,32.25
2023-01-18T02:38:29.911Z,29.08
2023-01-18T02:41:19.373Z,32.40
2023-01-18T02:44:10.506Z,27.77
2023-01-18T02:46:46.713Z,29.30
2023-01-18T02:49:32.465Z,31.33
2023-01-18T02:52:07.840Z,29.23
2023-01-18T02:54:43.513Z,33.25
2023-01-18T02:57:19.557Z,26.35
2023-01-18T02:59:56.198Z,24.60
2023-01-18T03:02:33.737Z,28.35
2023-01-18T03:05:07.732Z,27.38
2023-01-18T03:07:48.909Z,26.08
2023-01-18T03:10:23.077Z,28.02
2023-01-18T03:13:03.119Z,30.85
2023-01-18T03:15:45.239Z,31.15
2023-01-18T03:18:25.409Z,34.92
2023-01-18T03:21:00.517Z,28.33
2023-01-18T03:23:41.392Z,33.97
2023-01-18T03:26:16.955Z,29.33
2023-01-18T03:29:07.979Z,25.00
2023-01-18T03:31:58.564Z,33.00
2023-01-18T03:34:43.047Z,24.90
2023-01-18T03:37:20.616Z,28.10
2023-01-18T03:39:57.241Z,28.33
2023-01-18T03:42:34.259Z,31.20
2023-01-18T03:45:16.127Z,25.92
2023-01-18T03:47:50.609Z,26.38
2023-01-18T03:50:36.351Z,29.52
2023-01-18T03:53:15.140Z,29.13
2023-01-18T03:55:52.100Z,27.50
2023-01-18T03:58:30.531Z,26.52
2023-01-18T04:01:07.625Z,26.45
2023-01-18T04:03:39.413Z,27.27
2023-01-18T04:06:14.662Z,29.90
2023-01-18T04:08:46.974Z,23.55
2023-01-18T04:11:19.021Z,26.42
2023-01-18T04:13:50.458Z,25.67
2023-01-18T04:19:45.964Z,25.65
2023-01-18T04:22:20.999Z,24.27
2023-01-18T04:24:53.197Z,20.15
2023-01-18T04:27:47.995Z,21.77
2023-01-18T04:30:20.810Z,22.92
2023-01-18T04:32:53.078Z,20.90
2023-01-18T04:35:25.086Z,23.75
2023-01-18T04:38:11.138Z,21.40
2023-01-18T04:40:43.287Z,23.85
2023-01-18T04:43:15.691Z,20.42
2023-01-18T04:45:56.259Z,18.08
2023-01-18T04:48:29.190Z,15.95
2023-01-18T04:51:01.167Z,15.57
2023-01-18T04:53:41.393Z,14.55
2023-01-18T04:56:14.308Z,14.80
2023-01-18T04:58:46.837Z,14.85
2023-01-18T05:01:19.177Z,14.88
2023-01-18T05:06:43.029Z,17.88
2023-01-18T05:09:19.259Z,12.75
2023-01-18T05:11:51.296Z,12.57
2023-01-18T05:14:57.847Z,14.88
2023-01-18T05:17:30.725Z,14.23
2023-01-18T05:20:03.586Z,14.25
2023-01-18T05:22:37.539Z,16.40
2023-01-18T05:25:13.049Z,16.00
2023-01-18T05:27:45.217Z,15.10
2023-01-18T05:30:18.447Z,14.23
2023-01-18T05:32:51.472Z,12.60
2023-01-18T05:35:23.779Z,17.25
2023-01-18T05:37:58.187Z,14.48
2023-01-18T05:40:33.370Z,18.35
2023-01-18T05:43:05.473Z,17.85
2023-01-18T05:45:38.002Z,17.95
2023-01-18T05:48:10.066Z,14.50
2023-01-18T05:50:43.934Z,15.43
2023-01-18T05:53:17.148Z,14.27
2023-01-18T05:56:00.989Z,17.70
2023-01-18T05:58:33.330Z,22.90
2023-01-18T06:01:05.721Z,14.18
2023-01-18T06:03:38.524Z,23.58
2023-01-18T06:06:11.063Z,20.75
2023-01-18T06:08:43.224Z,19.08
2023-01-18T06:11:18.424Z,18.60
2023-01-18T06:13:50.387Z,19.70
2023-01-18T06:16:23.023Z,20.30
2023-01-18T06:18:55.168Z,20.25
2023-01-18T06:21:27.706Z,16.48
2023-01-18T06:23:59.930Z,21.73
2023-01-18T06:26:35.826Z,20.20
2023-01-18T06:29:08.298Z,16.88
2023-01-18T06:31:41.740Z,17.52
2023-01-18T06:34:14.235Z,16.55
2023-01-18T06:36:48.572Z,16.98
2023-01-18T06:39:20.949Z,17.02
2023-01-18T06:41:56.131Z,19.92
2023-01-18T06:44:28.329Z,15.52
2023-01-18T06:47:00.987Z,21.33
2023-01-18T06:49:35.532Z,18.92
2023-01-18T06:52:18.871Z,18.42
2023-01-18T06:54:54.050Z,17.77
2023-01-18T06:57:29.555Z,14.95
2023-01-18T07:00:06.255Z,14.80
2023-01-18T07:06:11.787Z,16.45
2023-01-18T07:09:08.568Z,17.13
2023-01-18T07:11:44.350Z,17.40
2023-01-18T07:14:19.289Z,19.80
2023-01-18T07:16:51.142Z,13.13
2023-01-18T07:19:23.468Z,16.27
2023-01-18T07:21:55.573Z,15.30
2023-01-18T07:24:27.874Z,14.50
2023-01-18T07:26:59.859Z,14.48
2023-01-18T07:29:34.968Z,15.50
2023-01-18T07:32:07.522Z,12.95
2023-01-18T07:34:39.750Z,17.58
2023-01-18T07:37:11.449Z,17.20
2023-01-18T07:39:43.902Z,11.10
2023-01-18T07:42:15.610Z,9.07
2023-01-18T07:44:50.621Z,15.40
2023-01-18T07:47:22.907Z,12.88
2023-01-18T07:49:55.372Z,12.18
2023-01-18T07:52:27.359Z,13.68
2023-01-18T07:54:59.810Z,12.20
2023-01-18T07:57:31.784Z,9.30
2023-01-18T08:00:07.471Z,13.27
2023-01-18T08:02:39.434Z,10.55
2023-01-18T08:05:12.866Z,13.82
2023-01-18T08:07:44.804Z,13.73
2023-01-18T08:10:19.726Z,15.32
2023-01-18T08:12:52.285Z,15.57
2023-01-18T08:15:27.121Z,11.73
2023-01-18T08:17:59.101Z,12.38
2023-01-18T08:20:31.369Z,14.02
2023-01-18T08:23:04.465Z,15.00
2023-01-18T08:25:36.823Z,13.27
2023-01-18T08:28:09.113Z,11.32
2023-01-18T08:30:47.021Z,10.88
2023-01-18T08:33:19.436Z,14.90
2023-01-18T08:35:52.201Z,13.27
2023-01-18T08:38:24.250Z,8.98
2023-01-18T08:40:56.840Z,11.63
2023-01-18T08:43:29.290Z,15.98
2023-01-18T08:46:04.642Z,12.13
2023-01-18T08:48:36.897Z,12.25
2023-01-18T08:51:09.799Z,12.43
2023-01-18T08:53:42.044Z,16.27
2023-01-18T08:56:14.684Z,11.13
2023-01-18T08:58:47.736Z,10.25
2023-01-18T09:01:24.045Z,17.73
2023-01-18T09:03:58.708Z,13.70
2023-01-18T09:06:32.602Z,11.57
2023-01-18T09:09:05.719Z,14.48
2023-01-18T09:11:38.801Z,10.55
2023-01-18T09:14:11.284Z,10.50
2023-01-18T09:16:47.130Z,12.57
2023-01-18T09:19:19.642Z,10.07
2023-01-18T09:21:54.004Z,20.30
2023-01-18T09:24:26.601Z,11.70
2023-01-18T09:26:59.521Z,11.65
2023-01-18T09:29:32.577Z,10.15
2023-01-18T09:32:08.563Z,13.27
2023-01-18T09:34:42.724Z,10.10
2023-01-18T09:37:15.501Z,12.20
2023-01-18T09:39:52.250Z,13.63
2023-01-18T09:42:27.682Z,15.23
2023-01-18T09:45:04.004Z,14.63
2023-01-18T09:47:47.146Z,15.05
2023-01-18T09:50:25.635Z,12.00
2023-01-18T09:53:07.386Z,15.82
2023-01-18T09:55:52.079Z,11.95
2023-01-18T09:58:39.874Z,15.70
2023-01-18T10:01:17.467Z,12.15
2023-01-18T10:03:58.382Z,16.23
2023-01-18T10:06:34.743Z,14.40
2023-01-18T10:09:10.548Z,14.20
2023-01-18T10:11:48.629Z,19.90
2023-01-18T10:14:31.463Z,14.18
2023-01-18T10:17:08.815Z,14.20
2023-01-18T10:19:45.123Z,18.92
2023-01-18T10:22:25.452Z,15.23
2023-01-18T10:25:04.785Z,18.60
2023-01-18T10:28:11.900Z,19.83
2023-01-18T10:30:58.899Z,17.83
2023-01-18T10:33:36.598Z,12.25
2023-01-18T10:36:17.839Z,15.23
2023-01-18T10:38:51.599Z,15.40
2023-01-18T10:41:28.037Z,14.75
2023-01-18T10:44:02.009Z,16.73
2023-01-18T10:46:35.448Z,20.27
2023-01-18T10:49:09.678Z,13.15
2023-01-18T10:51:46.837Z,12.68
2023-01-18T10:54:29.211Z,14.45
2023-01-18T10:57:08.515Z,13.75
2023-01-18T10:59:43.962Z,16.50
2023-01-18T11:02:27.947Z,18.45
2023-01-18T11:05:05.718Z,15.10
2023-01-18T11:07:42.802Z,19.13
2023-01-18T11:10:28.533Z,14.82
2023-01-18T11:13:01.624Z,17.65
2023-01-18T11:15:34.517Z,13.52
2023-01-18T11:18:13.563Z,15.27
2023-01-18T11:20:51.364Z,12.45
2023-01-18T11:23:29.857Z,11.20
2023-01-18T11:26:09.888Z,10.57
2023-01-18T11:28:49.684Z,9.95
2023-01-18T11:31:25.925Z,17.38
2023-01-18T11:34:00.793Z,11.95
2023-01-18T11:36:41.974Z,11.38
2023-01-18T11:39:45.439Z,14.10
2023-01-18T11:42:26.919Z,12.68
2023-01-18T11:45:23.083Z,14.30
2023-01-18T11:48:06.841Z,14.88
2023-01-18T11:50:45.650Z,13.73
2023-01-18T11:53:28.394Z,11.88
2023-01-18T11:56:10.274Z,15.75
2023-01-18T11:58:41.727Z,17.35
2023-01-18T12:01:31.343Z,13.63
2023-01-18T12:04:09.547Z,13.43
2023-01-18T12:06:55.382Z,13.63
2023-01-18T12:09:38.875Z,11.45
2023-01-18T12:12:43.513Z,10.60
2023-01-18T12:15:45.303Z,9.43
2023-01-18T12:18:38.453Z,13.60
2023-01-18T12:21:17.774Z,16.25
2023-01-18T12:24:05.437Z,14.40
2023-01-18T12:27:03.219Z,14.75
2023-01-18T12:30:20.448Z,15.27
2023-01-18T12:33:08.413Z,14.52
2023-01-18T12:36:15.235Z,15.80
2023-01-18T12:38:53.038Z,10.48
2023-01-18T12:41:48.384Z,12.07
2023-01-18T12:45:02.592Z,16.58
2023-01-18T12:47:43.183Z,13.90
2023-01-18T12:50:25.291Z,14.05
2023-01-18T12:53:02.205Z,12.23
2023-01-18T12:55:38.153Z,11.02
2023-01-18T12:58:14.430Z,12.18
2023-01-18T13:00:57.630Z,16.75
2023-01-18T13:03:38.155Z,9.70
2023-01-18T13:06:12.668Z,9.95
2023-01-18T13:08:50.347Z,15.10
2023-01-18T13:11:25.585Z,12.85
2023-01-18T13:14:09.843Z,16.05
2023-01-18T13:16:54.375Z,13.05
2023-01-18T13:19:36.065Z,17.20
2023-01-18T13:22:16.205Z,15.35
2023-01-18T13:25:29.152Z,14.43
2023-01-18T13:28:03.553Z,15.75
2023-01-18T13:30:55.788Z,14.82
2023-01-18T13:33:33.747Z,17.98
2023-01-18T13:36:11.427Z,15.35
2023-01-18T13:38:53.742Z,14.18
2023-01-18T13:41:28.608Z,18.52
2023-01-18T13:44:21.893Z,19.95
2023-01-18T13:46:54.775Z,19.27
2023-01-18T13:49:48.069Z,15.20
2023-01-18T13:52:35.973Z,19.42
2023-01-18T13:55:31.674Z,20.63
2023-01-18T13:58:04.973Z,16.77
2023-01-18T14:00:38.577Z,19.73
2023-01-18T14:03:23.582Z,17.10
2023-01-18T14:06:00.904Z,19.48
2023-01-18T14:08:35.890Z,16.90
2023-01-18T14:11:12.168Z,21.30
2023-01-18T14:14:04.057Z,20.95
2023-01-18T14:16:39.596Z,19.30
2023-01-18T14:19:20.558Z,16.17
2023-01-18T14:22:20.712Z,19.48
2023-01-18T14:25:10.314Z,20.02
2023-01-18T14:27:47.672Z,17.42
2023-01-18T14:30:31.029Z,18.40
2023-01-18T14:33:08.469Z,21.05
2023-01-18T14:35:42.328Z,22.05
2023-01-18T14:38:19.354Z,20.08
2023-01-18T14:40:54.871Z,21.05
2023-01-18T14:43:32.714Z,23.65
2023-01-18T14:46:09.239Z,17.65
2023-01-18T14:48:52.075Z,18.92
2023-01-18T14:51:27.079Z,14.70
2023-01-18T14:54:05.717Z,15.18
2023-01-18T14:56:45.448Z,14.80
2023-01-18T14:59:27.587Z,16.45
2023-01-18T15:02:03.108Z,17.08
2023-01-18T15:04:40.598Z,13.20
2023-01-18T15:07:19.518Z,18.40
2023-01-18T15:09:54.925Z,21.35
2023-01-18T15:12:34.097Z,16.23
2023-01-18T15:15:11.278Z,15.65
2023-01-18T15:17:46.316Z,13.57
2023-01-18T15:20:19.317Z,14.73
2023-01-18T15:22:57.457Z,15.35
2023-01-18T15:25:36.616Z,15.95
2023-01-18T15:28:23.328Z,14.57
2023-01-18T15:30:58.659Z,16.98
2023-01-18T15:33:33.383Z,169.00
2023-01-18T15:36:10.175Z,272.02
2023-01-18T15:38:43.576Z,29.92
2023-01-18T15:41:22.297Z,19.45
2023-01-18T15:43:55.542Z,13.85
2023-01-18T15:46:29.429Z,15.50
2023-01-18T15:49:02.941Z,15.80
2023-01-18T15:51:47.722Z,21.15
2023-01-18T15:54:23.266Z,25.02
2023-01-18T15:57:14.071Z,19.48
2023-01-18T15:59:48.106Z,23.77
2023-01-18T16:02:22.780Z,23.58
2023-01-18T16:05:23.836Z,16.95
2023-01-18T16:08:19.388Z,19.52
2023-01-18T16:10:55.911Z,19.10
2023-01-18T16:13:40.228Z,18.52
2023-01-18T16:16:23.740Z,19.80
2023-01-18T16:19:07.947Z,21.52
2023-01-18T16:21:51.137Z,18.42
2023-01-18T16:24:41.463Z,23.05
2023-01-18T16:27:16.468Z,25.88
2023-01-18T16:29:53.388Z,18.92
2023-01-18T16:32:35.789Z,21.60
2023-01-18T16:35:18.950Z,28.85
2023-01-18T16:37:53.202Z,18.42
2023-01-18T16:40:27.243Z,21.23
2023-01-18T16:43:03.928Z,22.38
2023-01-18T16:45:41.438Z,22.80
2023-01-18T16:48:19.347Z,26.45
2023-01-18T16:50:56.144Z,20.65
2023-01-18T16:53:29.902Z,19.20
2023-01-18T16:56:02.340Z,23.10
2023-01-18T16:58:36.390Z,21.02
2023-01-18T17:01:16.259Z,20.85
2023-01-18T17:03:50.910Z,25.38
2023-01-18T17:06:26.941Z,25.17
2023-01-18T17:09:00.146Z,21.80
2023-01-18T17:11:32.823Z,22.63
2023-01-18T17:14:06.118Z,24.25
2023-01-18T17:16:41.771Z,29.00
2023-01-18T17:19:19.031Z,29.30
2023-01-18T17:21:52.906Z,24.27
2023-01-18T17:24:26.420Z,27.17
2023-01-18T17:26:59.301Z,24.33
2023-01-18T17:29:32.504Z,28.92
2023-01-18T17:32:08.381Z,24.50
2023-01-18T17:34:41.383Z,22.40
2023-01-18T17:37:14.060Z,27.40
2023-01-18T17:40:02.380Z,24.08
2023-01-18T17:42:41.460Z,21.85
2023-01-18T17:45:15.821Z,23.35
2023-01-18T17:47:55.343Z,27.15
2023-01-18T17:50:28.911Z,21.23
2023-01-18T17:53:03.685Z,25.70
2023-01-18T17:55:35.911Z,26.13
2023-01-18T17:58:07.715Z,24.55
2023-01-18T18:00:42.584Z,22.63
2023-01-18T18:03:23.172Z,21.48
2023-01-18T18:06:03.737Z,17.15
2023-01-18T18:08:40.632Z,26.20
2023-01-18T18:11:18.339Z,20.75
2023-01-18T18:13:49.783Z,28.95
2023-01-18T18:16:23.955Z,26.33
2023-01-18T18:19:00.147Z,26.65
2023-01-18T18:21:32.394Z,28.95
2023-01-18T18:24:05.822Z,27.75
2023-01-18T18:26:38.118Z,23.70
2023-01-18T18:29:10.103Z,31.45
2023-01-18T18:31:44.581Z,31.05
2023-01-18T18:34:22.964Z,30.13
2023-01-18T18:36:55.311Z,27.08
2023-01-18T18:39:27.732Z,31.30
2023-01-18T18:42:03.555Z,28.65
2023-01-18T18:44:35.137Z,28.50
2023-01-18T18:47:10.229Z,29.95
2023-01-18T18:49:45.446Z,31.27
2023-01-18T18:52:20.397Z,33.90
2023-01-18T18:54:52.955Z,31.60
2023-01-18T18:57:32.846Z,29.92
2023-01-18T19:00:06.281Z,29.02
2023-01-18T19:02:38.621Z,30.65
2023-01-18T19:05:17.192Z,26.83
2023-01-18T19:07:51.967Z,32.38
2023-01-18T19:10:27.962Z,29.77
2023-01-18T19:13:02.582Z,32.35
2023-01-18T19:15:35.063Z,29.42
2023-01-18T19:18:11.849Z,30.85
2023-01-18T19:20:46.675Z,34.53
2023-01-18T19:23:18.920Z,29.40
2023-01-18T19:25:50.635Z,30.75
2023-01-18T19:28:23.071Z,28.40
2023-01-18T19:30:55.153Z,30.08
2023-01-18T19:33:27.160Z,29.60
2023-01-18T19:36:01.626Z,33.75
2023-01-18T19:38:35.505Z,29.05
2023-01-18T19:41:09.085Z,27.40
2023-01-18T19:43:43.065Z,30.35
2023-01-18T19:46:16.761Z,34.22
2023-01-18T19:48:48.915Z,33.47
2023-01-18T19:51:23.374Z,28.90
2023-01-18T19:53:57.851Z,29.85
2023-01-18T19:56:32.764Z,28.67
2023-01-18T19:59:04.689Z,33.90
2023-01-18T20:01:37.529Z,34.20
2023-01-18T20:04:13.702Z,36.38
2023-01-18T20:06:48.438Z,26.33
2023-01-18T20:09:25.022Z,30.17
2023-01-18T20:12:03.421Z,36.63
2023-01-18T20:14:41.180Z,35.80
2023-01-18T20:17:14.742Z,31.35
2023-01-18T20:19:49.396Z,34.60
2023-01-18T20:22:23.808Z,36.65
2023-01-18T20:24:57.725Z,36.15
2023-01-18T20:27:31.114Z,31.48
2023-01-18T20:30:04.071Z,31.70
2023-01-18T20:32:38.396Z,36.22
2023-01-18T20:35:14.732Z,32.10
2023-01-18T20:37:49.754Z,35.85
2023-01-18T20:40:21.949Z,39.63
2023-01-18T20:42:53.601Z,38.95
2023-01-18T20:45:25.836Z,40.70
2023-01-18T20:47:59.120Z,39.28
2023-01-18T20:50:31.291Z,43.33
2023-01-18T20:53:05.924Z,35.65
2023-01-18T20:55:40.173Z,39.38
2023-01-18T20:58:11.981Z,35.42
2023-01-18T21:00:44.117Z,35.28
2023-01-18T21:03:18.352Z,38.30
2023-01-18T21:05:50.621Z,40.22
2023-01-18T21:08:25.115Z,39.58
2023-01-18T21:10:59.497Z,39.30
2023-01-18T21:13:40.182Z,42.40
2023-01-18T21:16:13.161Z,39.58
2023-01-18T21:18:44.887Z,38.42
2023-01-18T21:21:19.612Z,39.42
2023-01-18T21:23:53.923Z,39.40
2023-01-18T21:26:26.080Z,36.85
2023-01-18T21:28:58.106Z,39.50
2023-01-18T21:31:30.240Z,37.72
2023-01-18T21:34:01.512Z,44.97
2023-01-18T21:36:33.340Z,42.30
2023-01-18T21:39:08.059Z,42.05
2023-01-18T21:41:52.119Z,44.25
2023-01-18T21:44:35.752Z,41.53
2023-01-18T21:47:07.696Z,47.95
2023-01-18T21:50:16.087Z,44.50
2023-01-18T21:52:56.712Z,40.75
2023-01-18T21:55:31.197Z,41.08
2023-01-18T21:58:15.698Z,47.15
2023-01-18T22:00:47.623Z,45.95
2023-01-18T22:03:20.518Z,46.78
2023-01-18T22:05:52.223Z,42.03
2023-01-18T22:08:24.209Z,44.45
2023-01-18T22:11:01.482Z,47.60
2023-01-18T22:13:33.604Z,44.45
2023-01-18T22:16:08.954Z,44.55
2023-01-18T22:18:42.066Z,39.67
2023-01-18T22:21:16.828Z,41.47
2023-01-18T22:23:49.556Z,43.90
2023-01-18T22:26:25.841Z,45.13
2023-01-18T22:28:58.281Z,44.33
2023-01-18T22:31:31.179Z,45.90
2023-01-18T22:34:05.328Z,47.17
2023-01-18T22:36:39.700Z,45.42
2023-01-18T22:39:12.799Z,42.15
2023-01-18T22:41:47.498Z,41.97
2023-01-18T22:44:20.212Z,41.55
2023-01-18T22:46:51.575Z,48.50
2023-01-18T22:49:23.707Z,47.35
2023-01-18T22:51:57.438Z,38.92
2023-01-18T22:54:29.464Z,37.55
2023-01-18T22:57:03.697Z,45.58
2023-01-18T22:59:35.399Z,43.60
2023-01-18T23:02:09.468Z,44.38
2023-01-18T23:04:41.273Z,44.53
2023-01-18T23:07:14.371Z,44.15
2023-01-18T23:09:46.491Z,38.47
2023-01-18T23:12:20.801Z,42.13
2023-01-18T23:15:04.961Z,42.78
2023-01-18T23:17:44.183Z,40.78
2023-01-18T23:20:19.218Z,34.90
2023-01-18T23:22:53.468Z,37.78
2023-01-18T23:25:25.820Z,38.20
2023-01-18T23:28:03.660Z,35.47
2023-01-18T23:30:36.063Z,42.58
2023-01-18T23:33:08.017Z,34.75
2023-01-18T23:35:40.782Z,38.28
2023-01-18T23:38:12.680Z,34.65
2023-01-18T23:40:57.281Z,37.28
2023-01-18T23:43:44.067Z,37.22
2023-01-18T23:46:28.572Z,31.90
2023-01-18T23:49:12.622Z,34.90
2023-01-18T23:51:57.199Z,29.85
2023-01-18T23:54:29.218Z,30.48
2023-01-18T23:57:04.380Z,28.73
2023-01-18T23:59:41.789Z,29.02
